createdAt,value
2018-08-09T00:00:42.687Z,95.84
2018-08-09T00:01:52.802Z,95.74
2018-08-09T00:03:02.378Z,95.94
2018-08-09T00:04:12.224Z,95.55
2018-08-09T00:05:21.800Z,94.87
2018-08-09T00:06:31.653Z,95.07
2018-08-09T00:07:41.231Z,94.64
2018-08-09T00:08:51.083Z,94.29
2018-08-09T00:10:00.662Z,95.07
2018-08-09T00:11:10.504Z,94.59
2018-08-09T00:12:20.614Z,93.96
2018-08-09T00:13:30.460Z,93.96
2018-08-09T00:14:40.311Z,93.77
2018-08-09T00:15:49.892Z,93.96
2018-08-09T00:16:59.750Z,93.96
2018-08-09T00:18:09.331Z,93.19
2018-08-09T00:19:18.635Z,93.29
2018-08-09T00:20:28.215Z,93.09
2018-08-09T00:21:37.792Z,92.71
2018-08-09T00:22:47.368Z,93.29
2018-08-09T00:23:56.958Z,93
2018-08-09T00:25:06.437Z,93.38
2018-08-09T00:26:16.289Z,92.8
2018-08-09T00:27:25.592Z,92.8
2018-08-09T00:28:34.630Z,92.8
2018-08-09T00:29:43.939Z,92.32
2018-08-09T00:30:53.786Z,92.71
2018-08-09T00:32:03.916Z,92.71
2018-08-09T00:33:13.760Z,92.9
2018-08-09T00:34:23.606Z,92.66
2018-08-09T00:35:32.909Z,91.8
2018-08-09T00:36:42.753Z,91.6
2018-08-09T00:37:52.329Z,91.03
2018-08-09T00:39:02.173Z,91.51
2018-08-09T00:40:11.475Z,91.6
2018-08-09T00:41:21.601Z,91.8
2018-08-09T00:42:31.177Z,91.51
2018-08-09T00:43:41.286Z,91.31
2018-08-09T00:44:50.868Z,91.6
2018-08-09T00:46:00.712Z,91.41
2018-08-09T00:47:10.016Z,91.6
2018-08-09T00:48:19.861Z,91.89
2018-08-09T00:49:29.436Z,91.03
2018-08-09T00:50:39.285Z,90.93
2018-08-09T00:51:48.865Z,91.22
2018-08-09T00:52:58.437Z,91.7
2018-08-09T00:54:07.745Z,90.45
2018-08-09T00:55:17.317Z,90.64
2018-08-09T00:56:26.350Z,90.35
2018-08-09T00:57:36.198Z,90.06
2018-08-09T00:58:45.783Z,90.45
2018-08-09T00:59:55.359Z,90.55
2018-08-09T01:01:04.128Z,90.35
2018-08-09T01:02:13.167Z,90.26
2018-08-09T01:03:22.741Z,90.16
2018-08-09T01:04:32.314Z,89.97
2018-08-09T01:05:41.889Z,89.68
2018-08-09T01:06:51.783Z,89.06
2018-08-09T01:08:01.366Z,89.35
2018-08-09T01:09:10.404Z,88.96
2018-08-09T01:10:19.705Z,88.87
2018-08-09T01:11:28.738Z,89.01
2018-08-09T01:12:37.769Z,88.91
2018-08-09T01:13:47.622Z,89.06
2018-08-09T01:14:57.468Z,88.67
2018-08-09T01:16:07.046Z,88.53
2018-08-09T01:17:17.158Z,88.48
2018-08-09T01:18:27.004Z,88.67
2018-08-09T01:19:36.580Z,88.48
2018-08-09T01:20:46.430Z,88.57
2018-08-09T01:21:55.735Z,88.67
2018-08-09T01:23:05.582Z,88.48
2018-08-09T01:24:14.885Z,88.39
2018-08-09T01:25:24.999Z,88.19
2018-08-09T01:26:34.573Z,88.1
2018-08-09T01:27:44.422Z,88.19
2018-08-09T01:28:53.727Z,88.57
2018-08-09T01:30:03.303Z,87.81
2018-08-09T01:31:12.874Z,87.62
2018-08-09T01:32:22.714Z,87.33
2018-08-09T01:33:32.295Z,87.33
2018-08-09T01:34:41.330Z,87.62
2018-08-09T01:35:50.902Z,87.71
2018-08-09T01:37:00.752Z,87.33
2018-08-09T01:38:10.603Z,87.04
2018-08-09T01:39:19.904Z,87.13
2018-08-09T01:40:29.204Z,86.75
2018-08-09T01:41:39.052Z,86.85
2018-08-09T01:42:49.163Z,87.04
2018-08-09T01:43:59.005Z,86.85
2018-08-09T01:45:08.599Z,85.98
2018-08-09T01:46:17.903Z,86.08
2018-08-09T01:47:27.494Z,85.98
2018-08-09T01:48:37.609Z,85.98
2018-08-09T01:49:46.913Z,86.18
2018-08-09T01:50:56.760Z,86.27
2018-08-09T01:52:06.065Z,86.36
2018-08-09T01:53:16.180Z,85.5
2018-08-09T01:54:26.035Z,85.69
2018-08-09T01:55:35.882Z,85.6
2018-08-09T01:56:45.452Z,86.08
2018-08-09T01:57:55.577Z,85.98
2018-08-09T01:59:05.157Z,85.4
2018-08-09T02:00:14.736Z,85.4
2018-08-09T02:01:23.773Z,85.98
2018-08-09T02:02:33.619Z,85.31
2018-08-09T02:03:43.731Z,85.21
2018-08-09T02:04:54.062Z,85.98
2018-08-09T02:06:03.723Z,85.21
2018-08-09T02:07:13.634Z,85.11
2018-08-09T02:08:23.822Z,84.73
2018-08-09T02:09:33.130Z,84.92
2018-08-09T02:10:42.980Z,85.02
2018-08-09T02:11:52.556Z,85.5
2018-08-09T02:13:01.865Z,85.5
2018-08-09T02:14:11.442Z,85.36
2018-08-09T02:15:21.017Z,85.36
2018-08-09T02:16:30.321Z,85.5
2018-08-09T02:17:40.166Z,85.31
2018-08-09T02:18:49.742Z,85.27
2018-08-09T02:19:59.858Z,85.27
2018-08-09T02:21:09.700Z,85.27
2018-08-09T02:22:19.595Z,84.98
2018-08-09T02:23:29.718Z,85.27
2018-08-09T02:24:39.025Z,85.36
2018-08-09T02:25:49.138Z,85.36
2018-08-09T02:26:58.713Z,85.17
2018-08-09T02:28:08.567Z,85.27
2018-08-09T02:29:18.139Z,85.17
2018-08-09T02:30:27.720Z,85.46
2018-08-09T02:31:37.573Z,85.27
2018-08-09T02:32:47.696Z,85.27
2018-08-09T02:33:57.571Z,84.69
2018-08-09T02:35:07.159Z,84.69
2018-08-09T02:36:16.736Z,84.88
2018-08-09T02:37:26.857Z,84.78
2018-08-09T02:38:36.435Z,84.59
2018-08-09T02:39:46.290Z,84.59
2018-08-09T02:40:56.418Z,84.11
2018-08-09T02:42:06.275Z,84.21
2018-08-09T02:43:15.858Z,84.01
2018-08-09T02:44:25.715Z,84.01
2018-08-09T02:45:35.296Z,84.11
2018-08-09T02:46:45.270Z,84.01
2018-08-09T02:47:55.874Z,84.3
2018-08-09T02:49:05.732Z,83.63
2018-08-09T02:50:15.592Z,83.83
2018-08-09T02:51:25.453Z,83.73
2018-08-09T02:52:35.584Z,83.44
2018-08-09T02:53:45.441Z,83.44
2018-08-09T02:54:55.289Z,83.87
2018-08-09T02:56:05.407Z,83.59
2018-08-09T02:57:15.525Z,83.25
2018-08-09T02:58:25.411Z,83.4
2018-08-09T02:59:34.719Z,83.4
2018-08-09T03:00:44.578Z,83.34
2018-08-09T03:01:54.434Z,83.3
2018-08-09T03:03:04.019Z,83.4
2018-08-09T03:04:13.875Z,83.2
2018-08-09T03:05:23.178Z,82.92
2018-08-09T03:06:32.492Z,83.2
2018-08-09T03:07:42.348Z,82.82
2018-08-09T03:08:52.197Z,83.01
2018-08-09T03:10:02.335Z,83.11
2018-08-09T03:11:12.192Z,82.96
2018-08-09T03:12:21.771Z,82.34
2018-08-09T03:13:31.363Z,82.24
2018-08-09T03:14:40.934Z,82.53
2018-08-09T03:15:50.511Z,82.63
2018-08-09T03:17:00.359Z,82.73
2018-08-09T03:18:09.405Z,82.15
2018-08-09T03:19:19.517Z,81.96
2018-08-09T03:20:29.383Z,82.43
2018-08-09T03:21:38.959Z,82.05
2018-08-09T03:22:48.805Z,82.05
2018-08-09T03:23:58.922Z,82.34
2018-08-09T03:25:09.052Z,82.34
2018-08-09T03:26:18.356Z,82.82
2018-08-09T03:27:28.199Z,82.24
2018-08-09T03:28:38.321Z,82.24
2018-08-09T03:29:47.620Z,82.15
2018-08-09T03:30:57.187Z,82.05
2018-08-09T03:32:06.230Z,82.15
2018-08-09T03:33:16.353Z,82.34
2018-08-09T03:34:25.392Z,82.15
2018-08-09T03:35:35.229Z,81.96
2018-08-09T03:36:45.078Z,81.96
2018-08-09T03:37:54.650Z,81.96
2018-08-09T03:39:03.964Z,81.76
2018-08-09T03:40:13.807Z,82.34
2018-08-09T03:41:23.378Z,81.57
2018-08-09T03:42:32.684Z,82.15
2018-08-09T03:43:42.570Z,81.57
2018-08-09T03:44:52.436Z,81.57
2018-08-09T03:46:02.014Z,81.76
2018-08-09T03:47:11.861Z,81.67
2018-08-09T03:48:21.705Z,81.76
2018-08-09T03:49:31.278Z,81.76
2018-08-09T03:50:40.856Z,81.67
2018-08-09T03:51:50.987Z,81.76
2018-08-09T03:53:00.558Z,81.76
2018-08-09T03:54:10.142Z,81.76
2018-08-09T03:55:19.995Z,81.86
2018-08-09T03:56:29.574Z,81.76
2018-08-09T03:57:39.433Z,81.76
2018-08-09T03:58:48.744Z,81.86
2018-08-09T03:59:58.595Z,81.76
2018-08-09T04:01:07.900Z,81.67
2018-08-09T04:02:16.938Z,81.48
2018-08-09T04:03:25.976Z,82.05
2018-08-09T04:04:35.828Z,81.76
2018-08-09T04:05:45.410Z,81.76
2018-08-09T04:06:54.986Z,81.96
2018-08-09T04:08:04.029Z,81.86
2018-08-09T04:09:14.147Z,81.48
2018-08-09T04:10:24.266Z,81.76
2018-08-09T04:11:33.854Z,82.05
2018-08-09T04:12:43.782Z,81.48
2018-08-09T04:13:53.896Z,81.86
2018-08-09T04:15:04.019Z,81.86
2018-08-09T04:16:13.869Z,81.82
2018-08-09T04:17:23.449Z,82.01
2018-08-09T04:18:33.018Z,81.92
2018-08-09T04:19:42.595Z,81.76
2018-08-09T04:20:52.172Z,81.96
2018-08-09T04:22:01.475Z,81.96
2018-08-09T04:23:10.784Z,82.05
2018-08-09T04:24:20.369Z,82.05
2018-08-09T04:25:30.218Z,82.05
2018-08-09T04:26:39.951Z,81.72
2018-08-09T04:27:49.532Z,81.63
2018-08-09T04:28:59.113Z,82.01
2018-08-09T04:30:08.426Z,81.43
2018-08-09T04:31:18.271Z,81.43
2018-08-09T04:32:27.574Z,81.24
2018-08-09T04:33:37.426Z,81.28
2018-08-09T04:34:46.740Z,81.96
2018-08-09T04:35:56.049Z,82.05
2018-08-09T04:37:05.625Z,81.43
2018-08-09T04:38:15.741Z,81.38
2018-08-09T04:39:25.338Z,81.34
2018-08-09T04:40:34.349Z,81.34
2018-08-09T04:41:44.199Z,81.24
2018-08-09T04:42:53.499Z,81.86
2018-08-09T04:44:03.427Z,81.76
2018-08-09T04:45:13.268Z,81.57
2018-08-09T04:46:22.841Z,81.63
2018-08-09T04:47:32.698Z,81.48
2018-08-09T04:48:42.007Z,81.92
2018-08-09T04:49:51.861Z,81.76
2018-08-09T04:51:01.714Z,81.24
2018-08-09T04:52:11.018Z,81.76
2018-08-09T04:53:20.862Z,81.57
2018-08-09T04:54:30.703Z,81.28
2018-08-09T04:55:40.836Z,81.28
2018-08-09T04:56:50.691Z,81.38
2018-08-09T04:58:00.866Z,81.57
2018-08-09T04:59:10.582Z,81.48
2018-08-09T05:00:20.432Z,81.48
2018-08-09T05:01:30.556Z,81.48
2018-08-09T05:02:39.870Z,81.67
2018-08-09T05:03:49.443Z,81.28
2018-08-09T05:04:59.303Z,81.48
2018-08-09T05:06:09.434Z,81.67
2018-08-09T05:07:19.277Z,81.28
2018-08-09T05:08:29.129Z,81.48
2018-08-09T05:09:38.441Z,81.28
2018-08-09T05:10:48.285Z,81.38
2018-08-09T05:11:58.399Z,81.38
2018-08-09T05:13:08.245Z,81.57
2018-08-09T05:14:18.090Z,81.57
2018-08-09T05:15:27.671Z,81.48
2018-08-09T05:16:37.518Z,81.57
2018-08-09T05:17:46.566Z,81.19
2018-08-09T05:18:56.411Z,81.38
2018-08-09T05:20:05.982Z,81.28
2018-08-09T05:21:15.559Z,81.09
2018-08-09T05:22:24.864Z,81.28
2018-08-09T05:23:34.180Z,81.48
2018-08-09T05:24:44.293Z,81.13
2018-08-09T05:25:53.889Z,81.42
2018-08-09T05:27:03.748Z,81.42
2018-08-09T05:28:13.591Z,81.23
2018-08-09T05:29:23.176Z,81.52
2018-08-09T05:30:32.763Z,81.13
2018-08-09T05:31:42.345Z,81.32
2018-08-09T05:32:51.927Z,81.13
2018-08-09T05:34:01.278Z,81.32
2018-08-09T05:35:11.183Z,81.32
2018-08-09T05:36:20.756Z,81.42
2018-08-09T05:37:30.341Z,81.04
2018-08-09T05:38:39.377Z,81.71
2018-08-09T05:39:48.956Z,81.13
2018-08-09T05:40:58.268Z,81.13
2018-08-09T05:42:08.433Z,81.71
2018-08-09T05:43:18.280Z,81.23
2018-08-09T05:44:27.876Z,81.32
2018-08-09T05:45:38.042Z,81.42
2018-08-09T05:46:47.613Z,81.61
2018-08-09T05:47:57.735Z,81.52
2018-08-09T05:49:07.044Z,81.71
2018-08-09T05:50:16.618Z,81.42
2018-08-09T05:51:26.459Z,81.32
2018-08-09T05:52:35.805Z,81.71
2018-08-09T05:53:45.549Z,81.81
2018-08-09T05:54:55.397Z,81.42
2018-08-09T05:56:04.433Z,81.71
2018-08-09T05:57:14.549Z,81.23
2018-08-09T05:58:24.496Z,81.42
2018-08-09T05:59:34.859Z,81.71
2018-08-09T06:00:44.433Z,81.32
2018-08-09T06:01:53.737Z,81.71
2018-08-09T06:03:03.588Z,81.52
2018-08-09T06:04:13.430Z,81.32
2018-08-09T06:05:22.737Z,81.42
2018-08-09T06:06:32.042Z,81.07
2018-08-09T06:07:42.165Z,81.23
2018-08-09T06:08:52.289Z,81.17
2018-08-09T06:10:02.135Z,81.56
2018-08-09T06:11:11.977Z,81.37
2018-08-09T06:12:22.085Z,81.75
2018-08-09T06:13:32.078Z,81.17
2018-08-09T06:14:42.454Z,81.37
2018-08-09T06:15:52.305Z,81.46
2018-08-09T06:17:02.164Z,81.07
2018-08-09T06:18:12.016Z,81.17
2018-08-09T06:19:22.141Z,81.37
2018-08-09T06:20:31.992Z,80.98
2018-08-09T06:21:41.572Z,80.98
2018-08-09T06:22:51.149Z,81.37
2018-08-09T06:24:00.995Z,81.07
2018-08-09T06:25:10.582Z,80.79
2018-08-09T06:26:20.771Z,81.27
2018-08-09T06:27:31.002Z,81.21
2018-08-09T06:28:40.953Z,81.4
2018-08-09T06:29:51.347Z,81.12
2018-08-09T06:31:00.925Z,81.02
2018-08-09T06:32:10.503Z,81.12
2018-08-09T06:33:20.096Z,81.12
2018-08-09T06:34:30.446Z,81.21
2018-08-09T06:35:40.034Z,81.21
2018-08-09T06:36:49.344Z,81.21
2018-08-09T06:37:59.461Z,81.21
2018-08-09T06:39:08.231Z,81.02
2018-08-09T06:40:18.080Z,81.12
2018-08-09T06:41:27.930Z,81.12
2018-08-09T06:42:37.770Z,81.02
2018-08-09T06:43:47.073Z,81.02
2018-08-09T06:44:56.110Z,81.12
2018-08-09T06:46:05.693Z,81.21
2018-08-09T06:47:15.556Z,81.21
2018-08-09T06:48:25.398Z,81.21
2018-08-09T06:49:34.706Z,81.12
2018-08-09T06:50:44.010Z,81.02
2018-08-09T06:51:53.590Z,81.21
2018-08-09T06:53:03.440Z,81.12
2018-08-09T06:54:13.027Z,81.21
2018-08-09T06:55:22.336Z,81.21
2018-08-09T06:56:32.457Z,81.25
2018-08-09T06:57:42.302Z,81.06
2018-08-09T06:58:51.613Z,81.21
2018-08-09T07:00:01.454Z,81.12
2018-08-09T07:01:11.026Z,81.02
2018-08-09T07:02:20.604Z,81.16
2018-08-09T07:03:30.459Z,81.25
2018-08-09T07:04:40.310Z,81.35
2018-08-09T07:05:50.430Z,80.96
2018-08-09T07:07:00.379Z,80.77
2018-08-09T07:08:10.513Z,80.38
2018-08-09T07:09:20.106Z,80.48
2018-08-09T07:10:30.236Z,80.91
2018-08-09T07:11:39.595Z,80.81
2018-08-09T07:12:49.535Z,80.43
2018-08-09T07:13:59.778Z,81.01
2018-08-09T07:15:09.624Z,81.01
2018-08-09T07:16:18.932Z,80.43
2018-08-09T07:17:28.559Z,80.91
2018-08-09T07:18:38.672Z,80.91
2018-08-09T07:19:48.528Z,81.04
2018-08-09T07:20:58.380Z,80.62
2018-08-09T07:22:08.493Z,81.01
2018-08-09T07:23:18.069Z,80.94
2018-08-09T07:24:27.378Z,80.66
2018-08-09T07:25:36.691Z,81.14
2018-08-09T07:26:46.000Z,81.14
2018-08-09T07:27:55.574Z,81.04
2018-08-09T07:29:05.427Z,80.94
2018-08-09T07:30:14.741Z,81.14
2018-08-09T07:31:24.594Z,80.85
2018-08-09T07:32:34.451Z,80.85
2018-08-09T07:33:44.074Z,80.85
2018-08-09T07:34:54.091Z,81.47
2018-08-09T07:36:03.942Z,80.99
2018-08-09T07:37:13.788Z,81.57
2018-08-09T07:38:23.365Z,81.09
2018-08-09T07:39:33.449Z,81.76
2018-08-09T07:40:44.189Z,81.37
2018-08-09T07:41:53.496Z,80.69
2018-08-09T07:43:03.614Z,81.76
2018-08-09T07:44:13.456Z,80.99
2018-08-09T07:45:23.033Z,81.57
2018-08-09T07:46:33.210Z,81.47
2018-08-09T07:47:42.783Z,81.6
2018-08-09T07:48:52.510Z,82.09
2018-08-09T07:50:02.182Z,81.8
2018-08-09T07:51:11.485Z,82.09
2018-08-09T07:52:21.093Z,82.18
2018-08-09T07:53:30.669Z,82.18
2018-08-09T07:54:39.709Z,82.18
2018-08-09T07:55:49.022Z,82.28
2018-08-09T07:56:58.633Z,82.28
2018-08-09T07:58:08.836Z,82.23
2018-08-09T07:59:18.143Z,82.42
2018-08-09T08:00:27.720Z,82.32
2018-08-09T08:01:37.568Z,82.42
2018-08-09T08:02:47.145Z,82.75
2018-08-09T08:03:56.459Z,82.94
2018-08-09T08:05:06.048Z,83.23
2018-08-09T08:06:16.363Z,83.23
2018-08-09T08:07:26.301Z,83.04
2018-08-09T08:08:35.612Z,82.89
2018-08-09T08:09:45.190Z,82.69
2018-08-09T08:10:54.773Z,83.08
2018-08-09T08:12:04.356Z,83.18
2018-08-09T08:13:14.206Z,83.18
2018-08-09T08:14:23.783Z,83.08
2018-08-09T08:15:33.418Z,83.18
2018-08-09T08:16:42.996Z,83.37
2018-08-09T08:17:52.578Z,83.66
2018-08-09T08:19:02.430Z,83.75
2018-08-09T08:20:12.005Z,84.33
2018-08-09T08:21:21.581Z,84.33
2018-08-09T08:22:31.242Z,84.43
2018-08-09T08:23:40.830Z,84.33
2018-08-09T08:24:50.672Z,84.38
2018-08-09T08:25:59.982Z,84.28
2018-08-09T08:27:09.566Z,83.99
2018-08-09T08:28:19.156Z,83.89
2018-08-09T08:29:28.727Z,83.89
2018-08-09T08:30:38.843Z,83.7
2018-08-09T08:31:48.417Z,84.57
2018-08-09T08:32:57.726Z,84.57
2018-08-09T08:34:07.310Z,84.19
2018-08-09T08:35:17.161Z,84.67
2018-08-09T08:36:27.007Z,84.38
2018-08-09T08:37:36.860Z,84.47
2018-08-09T08:38:46.442Z,84.77
2018-08-09T08:39:56.292Z,84.22
2018-08-09T08:41:06.155Z,83.8
2018-08-09T08:42:16.318Z,84.38
2018-08-09T08:43:26.572Z,84.61
2018-08-09T08:44:36.422Z,84.03
2018-08-09T08:45:45.737Z,84.22
2018-08-09T08:46:55.045Z,83.74
2018-08-09T08:48:05.164Z,84.61
2018-08-09T08:49:14.749Z,84.42
2018-08-09T08:50:23.792Z,84.13
2018-08-09T08:51:33.910Z,84.52
2018-08-09T08:52:44.032Z,84.32
2018-08-09T08:53:53.346Z,84.42
2018-08-09T08:55:02.990Z,84.71
2018-08-09T08:56:12.955Z,84.61
2018-08-09T08:57:22.532Z,84.52
2018-08-09T08:58:32.382Z,85
2018-08-09T08:59:41.695Z,84.9
2018-08-09T09:00:51.653Z,84.22
2018-08-09T09:02:01.687Z,84.42
2018-08-09T09:03:11.050Z,84.42
2018-08-09T09:04:20.875Z,84.61
2018-08-09T09:05:30.665Z,85.19
2018-08-09T09:06:40.788Z,84.66
2018-08-09T09:07:50.368Z,84.94
2018-08-09T09:09:00.221Z,84.75
2018-08-09T09:10:09.529Z,84.75
2018-08-09T09:11:19.688Z,84.84
2018-08-09T09:12:29.536Z,84.56
2018-08-09T09:13:38.939Z,84.27
2018-08-09T09:14:49.055Z,84.56
2018-08-09T09:15:58.631Z,84.75
2018-08-09T09:17:08.757Z,85.42
2018-08-09T09:18:18.339Z,84.36
2018-08-09T09:19:27.926Z,84.84
2018-08-09T09:20:37.502Z,84.46
2018-08-09T09:21:47.082Z,84.56
2018-08-09T09:22:56.926Z,84.75
2018-08-09T09:24:07.042Z,84.46
2018-08-09T09:25:16.622Z,85.04
2018-08-09T09:26:26.480Z,84.46
2018-08-09T09:27:36.055Z,84.27
2018-08-09T09:28:45.639Z,84.46
2018-08-09T09:29:55.232Z,84.66
2018-08-09T09:31:04.826Z,84.36
2018-08-09T09:32:14.407Z,84.36
2018-08-09T09:33:24.257Z,84.66
2018-08-09T09:34:34.377Z,85.24
2018-08-09T09:35:44.226Z,84.84
2018-08-09T09:36:53.537Z,84.56
2018-08-09T09:38:03.381Z,84.46
2018-08-09T09:39:13.236Z,84.6
2018-08-09T09:40:22.818Z,84.84
2018-08-09T09:41:32.670Z,84.99
2018-08-09T09:42:42.250Z,84.41
2018-08-09T09:43:52.112Z,84.6
2018-08-09T09:45:01.692Z,84.89
2018-08-09T09:46:11.813Z,84.6
2018-08-09T09:47:21.402Z,84.01
2018-08-09T09:48:30.975Z,84.89
2018-08-09T09:49:40.608Z,84.5
2018-08-09T09:50:50.441Z,84.21
2018-08-09T09:52:00.272Z,84.5
2018-08-09T09:53:09.578Z,85.08
2018-08-09T09:54:18.893Z,85.41
2018-08-09T09:55:28.767Z,84.55
2018-08-09T09:56:38.622Z,85.13
2018-08-09T09:57:47.961Z,84.83
2018-08-09T09:58:57.597Z,84.64
2018-08-09T10:00:07.175Z,84.83
2018-08-09T10:01:16.214Z,84.25
2018-08-09T10:02:25.930Z,83.96
2018-08-09T10:03:35.327Z,84.06
2018-08-09T10:04:44.372Z,84.06
2018-08-09T10:05:54.222Z,84.16
2018-08-09T10:07:03.584Z,84.06
2018-08-09T10:08:14.142Z,83.96
2018-08-09T10:09:23.536Z,83.67
2018-08-09T10:10:33.593Z,84.45
2018-08-09T10:11:43.747Z,84.16
2018-08-09T10:12:53.587Z,84.25
2018-08-09T10:14:03.711Z,84.74
2018-08-09T10:15:13.300Z,84.16
2018-08-09T10:16:23.457Z,84.93
2018-08-09T10:17:33.586Z,84.83
2018-08-09T10:18:43.331Z,84.55
2018-08-09T10:19:53.318Z,85.51
2018-08-09T10:21:03.540Z,85.41
2018-08-09T10:22:13.394Z,85.9
2018-08-09T10:23:22.970Z,85.9
2018-08-09T10:24:32.820Z,85.31
2018-08-09T10:25:42.944Z,85.31
2018-08-09T10:26:52.793Z,84.93
2018-08-09T10:28:02.705Z,85.03
2018-08-09T10:29:11.739Z,85.22
2018-08-09T10:30:21.630Z,85.71
2018-08-09T10:31:31.213Z,85.9
2018-08-09T10:32:40.789Z,86.19
2018-08-09T10:33:50.368Z,85.41
2018-08-09T10:35:00.214Z,84.45
2018-08-09T10:36:10.060Z,84.74
2018-08-09T10:37:19.369Z,85.13
2018-08-09T10:38:29.226Z,85.71
2018-08-09T10:39:38.804Z,84.83
2018-08-09T10:40:48.860Z,85.03
2018-08-09T10:41:58.178Z,85.71
2018-08-09T10:43:07.752Z,84.83
2018-08-09T10:44:17.071Z,85.22
2018-08-09T10:45:26.653Z,85.71
2018-08-09T10:46:36.505Z,85.51
2018-08-09T10:47:46.618Z,85.9
2018-08-09T10:48:56.562Z,85.71
2018-08-09T10:50:06.378Z,85.9
2018-08-09T10:51:16.502Z,85.61
2018-08-09T10:52:26.224Z,85.31
2018-08-09T10:53:35.529Z,85.22
2018-08-09T10:54:45.379Z,85.8
2018-08-09T10:55:55.247Z,85.71
2018-08-09T10:57:04.891Z,86.09
2018-08-09T10:58:14.771Z,86.48
2018-08-09T10:59:24.425Z,87.45
2018-08-09T11:00:34.247Z,88.85
2018-08-09T11:01:44.639Z,89.15
2018-08-09T11:02:54.772Z,89.53
2018-08-09T11:04:04.485Z,89.92
2018-08-09T11:05:14.082Z,89.05
2018-08-09T11:06:24.209Z,88.37
2018-08-09T11:07:33.794Z,88.57
2018-08-09T11:08:44.114Z,87.75
2018-08-09T11:09:54.214Z,86.2
2018-08-09T11:11:04.279Z,85.52
2018-08-09T11:12:14.664Z,83.98
2018-08-09T11:13:24.509Z,83.98
2018-08-09T11:14:34.326Z,84.08
2018-08-09T11:15:44.183Z,83.78
2018-08-09T11:16:54.244Z,83.78
2018-08-09T11:18:04.352Z,83.2
2018-08-09T11:19:14.220Z,84.17
2018-08-09T11:20:24.118Z,84.03
2018-08-09T11:21:33.746Z,83.36
2018-08-09T11:22:43.326Z,83.64
2018-08-09T11:23:53.346Z,82.68
2018-08-09T11:25:03.450Z,81.81
2018-08-09T11:26:13.318Z,81.81
2018-08-09T11:27:23.164Z,80.74
2018-08-09T11:28:32.873Z,80.16
2018-08-09T11:29:42.524Z,80.55
2018-08-09T11:30:52.188Z,80.07
2018-08-09T11:32:02.314Z,80.11
2018-08-09T11:33:12.337Z,79
2018-08-09T11:34:22.002Z,77.55
2018-08-09T11:35:31.366Z,78.52
2018-08-09T11:36:41.494Z,77.84
2018-08-09T11:37:51.134Z,78.03
2018-08-09T11:39:00.783Z,77.84
2018-08-09T11:40:10.682Z,77.71
2018-08-09T11:41:20.295Z,77.61
2018-08-09T11:42:29.650Z,77.51
2018-08-09T11:43:39.602Z,77.51
2018-08-09T11:44:49.180Z,77.42
2018-08-09T11:45:59.293Z,77.22
2018-08-09T11:47:09.146Z,76.74
2018-08-09T11:48:18.460Z,77.13
2018-08-09T11:49:27.446Z,77.13
2018-08-09T11:50:37.415Z,76.55
2018-08-09T11:51:47.765Z,76.55
2018-08-09T11:52:58.070Z,76.55
2018-08-09T11:54:08.125Z,76.26
2018-08-09T11:55:18.179Z,73.74
2018-08-09T11:56:28.348Z,73.26
2018-08-09T11:57:38.754Z,73.52
2018-08-09T11:58:48.767Z,72.97
2018-08-09T11:59:58.531Z,73.07
2018-08-09T12:01:08.205Z,72.78
2018-08-09T12:02:18.372Z,72.78
2018-08-09T12:03:28.488Z,73.16
2018-08-09T12:04:38.840Z,73.74
2018-08-09T12:05:48.595Z,73.84
2018-08-09T12:06:58.446Z,73.26
2018-08-09T12:08:08.716Z,73.16
2018-08-09T12:09:18.846Z,72.78
2018-08-09T12:10:28.531Z,73.46
2018-08-09T12:11:38.121Z,72.88
2018-08-09T12:12:47.978Z,72.97
2018-08-09T12:13:57.569Z,73.16
2018-08-09T12:15:06.973Z,72.81
2018-08-09T12:16:16.938Z,72.91
2018-08-09T12:17:27.063Z,73.24
2018-08-09T12:18:36.917Z,72.95
2018-08-09T12:19:47.032Z,73.18
2018-08-09T12:20:56.994Z,73.37
2018-08-09T12:22:06.420Z,73.47
2018-08-09T12:23:15.999Z,74.57
2018-08-09T12:24:25.385Z,74.57
2018-08-09T12:25:35.298Z,75.24
2018-08-09T12:26:45.443Z,75.67
2018-08-09T12:27:54.769Z,75.87
2018-08-09T12:29:04.628Z,75.54
2018-08-09T12:30:14.212Z,76.21
2018-08-09T12:31:23.598Z,76.06
2018-08-09T12:32:33.453Z,76.41
2018-08-09T12:33:42.495Z,77.09
2018-08-09T12:34:52.357Z,76.89
2018-08-09T12:36:02.206Z,77.19
2018-08-09T12:37:11.524Z,77.03
2018-08-09T12:38:21.392Z,77.03
2018-08-09T12:39:31.245Z,77.32
2018-08-09T12:40:40.557Z,77.61
2018-08-09T12:41:49.874Z,77.42
2018-08-09T12:42:59.454Z,77.42
2018-08-09T12:44:09.470Z,77.22
2018-08-09T12:45:19.800Z,77.65
2018-08-09T12:46:30.436Z,77.61
2018-08-09T12:47:40.287Z,78.23
2018-08-09T12:48:49.877Z,78.71
2018-08-09T12:49:59.997Z,79.58
2018-08-09T12:51:09.843Z,79.2
2018-08-09T12:52:18.883Z,79
2018-08-09T12:53:28.737Z,79.68
2018-08-09T12:54:38.321Z,79
2018-08-09T12:55:47.906Z,79.2
2018-08-09T12:56:57.486Z,79.33
2018-08-09T12:58:06.809Z,79.63
2018-08-09T12:59:16.924Z,79.66
2018-08-09T13:00:26.245Z,79.61
2018-08-09T13:01:35.572Z,79.61
2018-08-09T13:02:45.433Z,79.74
2018-08-09T13:03:54.748Z,80.52
2018-08-09T13:05:04.622Z,81.3
2018-08-09T13:06:14.471Z,80.62
2018-08-09T13:07:24.597Z,80.66
2018-08-09T13:08:34.458Z,81.24
2018-08-09T13:09:44.593Z,81.24
2018-08-09T13:10:53.650Z,81.28
2018-08-09T13:12:03.268Z,81.38
2018-08-09T13:13:13.126Z,82.1
2018-08-09T13:14:22.756Z,81.57
2018-08-09T13:15:32.623Z,81.81
2018-08-09T13:16:42.753Z,81.51
2018-08-09T13:17:52.354Z,82.97
2018-08-09T13:19:02.210Z,81.94
2018-08-09T13:20:11.806Z,82.33
2018-08-09T13:21:21.947Z,81.65
2018-08-09T13:22:32.075Z,81.46
2018-08-09T13:23:41.124Z,81.49
2018-08-09T13:24:50.452Z,81.98
2018-08-09T13:26:00.326Z,81.88
2018-08-09T13:27:09.917Z,82.96
2018-08-09T13:28:18.696Z,81.69
2018-08-09T13:29:28.279Z,81.83
2018-08-09T13:30:38.426Z,81.73
2018-08-09T13:31:48.564Z,81.73
2018-08-09T13:32:57.878Z,81.96
2018-08-09T13:34:07.739Z,82.03
2018-08-09T13:35:17.334Z,81.48
2018-08-09T13:36:27.230Z,81.38
2018-08-09T13:37:36.848Z,81.77
2018-08-09T13:38:46.987Z,81.96
2018-08-09T13:39:56.304Z,82.55
2018-08-09T13:41:05.903Z,82.26
2018-08-09T13:42:15.228Z,81.13
2018-08-09T13:43:24.465Z,80.74
2018-08-09T13:44:33.441Z,81.32
2018-08-09T13:45:43.036Z,80.49
2018-08-09T13:46:52.369Z,79.8
2018-08-09T13:48:02.510Z,79.9
2018-08-09T13:49:12.373Z,80.13
2018-08-09T13:50:22.245Z,79.3
2018-08-09T13:51:31.961Z,80.04
2018-08-09T13:52:41.729Z,78.96
2018-08-09T13:53:51.763Z,79.3
2018-08-09T13:55:01.623Z,78.16
2018-08-09T13:56:11.214Z,77.54
2018-08-09T13:57:20.812Z,77.19
2018-08-09T13:58:30.459Z,77.15
2018-08-09T13:59:39.792Z,76.6
2018-08-09T14:00:49.386Z,77.09
2018-08-09T14:01:58.717Z,76.4
2018-08-09T14:03:08.311Z,76.15
2018-08-09T14:04:17.903Z,76.44
2018-08-09T14:05:27.497Z,75.85
2018-08-09T14:06:37.088Z,75.95
2018-08-09T14:07:46.424Z,75.07
2018-08-09T14:08:56.295Z,75.85
2018-08-09T14:10:06.167Z,75.11
2018-08-09T14:11:16.305Z,74.58
2018-08-09T14:12:26.168Z,75.89
2018-08-09T14:13:36.292Z,75.76
2018-08-09T14:14:45.885Z,76.31
2018-08-09T14:15:54.940Z,76.76
2018-08-09T14:17:05.077Z,76.37
2018-08-09T14:18:14.129Z,77.25
2018-08-09T14:19:23.723Z,76.66
2018-08-09T14:20:33.036Z,78.71
2018-08-09T14:21:42.629Z,76.46
2018-08-09T14:22:52.478Z,76.56
2018-08-09T14:24:02.610Z,76.86
2018-08-09T14:25:12.095Z,75.93
2018-08-09T14:26:21.678Z,77.01
2018-08-09T14:27:31.261Z,75.78
2018-08-09T14:28:40.846Z,76.46
2018-08-09T14:29:50.432Z,74.8
2018-08-09T14:31:00.288Z,74.22
2018-08-09T14:32:10.423Z,74.93
2018-08-09T14:33:20.280Z,74.05
2018-08-09T14:34:29.875Z,74.64
2018-08-09T14:35:39.469Z,74.9
2018-08-09T14:36:48.520Z,74.84
2018-08-09T14:37:58.116Z,75.49
2018-08-09T14:39:07.428Z,76.27
2018-08-09T14:40:17.012Z,74.71
2018-08-09T14:41:26.600Z,74.61
2018-08-09T14:42:36.392Z,75.49
2018-08-09T14:43:46.415Z,75.59
2018-08-09T14:44:56.535Z,75.68
2018-08-09T14:46:06.416Z,76.07
2018-08-09T14:47:16.001Z,75.35
2018-08-09T14:48:25.857Z,75.35
2018-08-09T14:49:35.719Z,75.1
2018-08-09T14:50:45.581Z,75.93
2018-08-09T14:51:55.168Z,77.3
2018-08-09T14:53:04.759Z,76.42
2018-08-09T14:54:14.631Z,76.52
2018-08-09T14:55:23.674Z,75.54
2018-08-09T14:56:32.987Z,76.19
2018-08-09T14:57:42.835Z,76.68
2018-08-09T14:58:52.423Z,76.29
2018-08-09T15:00:02.009Z,76.35
2018-08-09T15:01:12.141Z,76.68